Time;durP1;ratioP1;P1;durP2;ratioP2;P2;SDS_P1;SDS_P2;PMS_P1;PMS_P2;Temp;Humidity;BMP_temperature;BMP_pressure;BME280_temperature;BME280_humidity;BME280_pressure;Samples;Min_cycle;Max_cycle;Signal;HPM_P1;HPM_P2
2021/04/21 00:01:50;;;;;;;9.18;4.35;;;6.90;99.90;;;;;;5084270;28;20093;-71
2021/04/21 00:04:23;;;;;;;9.25;4.57;;;6.80;99.90;;;;;;5058069;28;20100;-72
2021/04/21 00:06:56;;;;;;;7.88;4.60;;;6.90;99.90;;;;;;5095693;28;20048;-71
2021/04/21 00:09:22;;;;;;;;;;;6.70;99.90;;;;;;5096888;28;20185;-72
2021/04/21 00:19:31;;;;;;;7.15;3.55;;;6.70;99.90;;;;;;5095506;28;20502;-72
2021/04/21 00:22:33;;;;;;;6.88;3.80;;;6.60;99.90;;;;;;5095480;28;20071;-72
2021/04/21 00:25:06;;;;;;;8.07;3.95;;;6.60;99.90;;;;;;5094461;28;20050;-72
2021/04/21 00:28:04;;;;;;;6.68;3.70;;;6.60;99.90;;;;;;5095507;28;20044;-72
2021/04/21 00:30:50;;;;;;;7.32;4.00;;;6.60;99.90;;;;;;5095393;28;20036;-72
2021/04/21 00:36:53;;;;;;;7.47;4.00;;;6.50;99.90;;;;;;5095799;28;20467;-72
2021/04/21 00:39:22;;;;;;;8.13;4.47;;;6.50;99.90;;;;;;5095482;28;20043;-72
2021/04/21 00:45:50;;;;;;;6.90;4.10;;;6.40;99.90;;;;;;5080084;28;20395;-72
2021/04/21 00:59:32;;;;;;;6.40;3.75;;;6.30;99.90;;;;;;5090232;28;20039;-71
2021/04/21 01:02:23;;;;;;;8.48;4.28;;;6.30;99.90;;;;;;5091160;28;20110;-72
2021/04/21 01:05:17;;;;;;;10.43;4.60;;;6.30;99.90;;;;;;5070235;28;20050;-72
2021/04/21 01:07:55;;;;;;;6.88;4.10;;;6.30;99.90;;;;;;5094912;28;20040;-71
2021/04/21 01:14:25;;;;;;;7.65;3.97;;;6.20;99.90;;;;;;5094433;28;20077;-72
2021/04/21 01:28:18;;;;;;;6.10;3.22;;;6.20;99.90;;;;;;5084692;28;20035;-72
2021/04/21 01:34:30;;;;;;;9.77;4.25;;;6.20;99.90;;;;;;5088749;28;20475;-72
2021/04/21 01:36:59;;;;;;;9.13;4.28;;;6.20;99.90;;;;;;5094669;28;20067;-72
2021/04/21 01:39:42;;;;;;;6.97;4.28;;;6.10;99.90;;;;;;5093583;28;20040;-72
2021/04/21 01:42:17;;;;;;;9.57;4.45;;;6.30;99.90;;;;;;5089791;28;20048;-72
2021/04/21 01:45:05;;;;;;;8.88;4.75;;;6.20;99.90;;;;;;5076498;28;20075;-71
2021/04/21 01:51:25;;;;;;;6.97;3.95;;;6.10;99.90;;;;;;5084957;28;20407;-71
2021/04/21 01:54:27;;;;;;;6.97;4.50;;;6.10;99.90;;;;;;5080530;28;20123;-71
2021/04/21 01:57:04;;;;;;;9.10;4.13;;;6.10;99.90;;;;;;5093019;28;20075;-71
2021/04/21 02:00:08;;;;;;;6.72;4.07;;;6.00;99.90;;;;;;5089189;28;20048;-71
2021/04/21 02:09:47;;;;;;;8.93;4.15;;;5.90;99.90;;;;;;5092217;28;20047;-71
2021/04/21 02:12:42;;;;;;;10.20;4.63;;;5.90;99.90;;;;;;5092113;28;20089;-71
2021/04/21 02:19:09;;;;;;;7.25;4.03;;;5.90;99.90;;;;;;5089711;28;20079;-72
2021/04/21 02:29:22;;;;;;;5.68;4.03;;;5.80;99.90;;;;;;5093522;28;20085;-72
2021/04/21 02:32:15;;;;;;;8.18;4.45;;;5.80;99.90;;;;;;5073340;28;20064;-71
2021/04/21 02:34:46;;;;;;;8.23;4.85;;;5.80;99.90;;;;;;5073728;28;20128;-72
2021/04/21 02:41:56;;;;;;;8.65;4.63;;;5.80;99.90;;;;;;5053216;28;20499;-72
2021/04/21 02:44:48;;;;;;;10.23;4.50;;;5.80;99.90;;;;;;5060538;28;20044;-72
2021/04/21 02:54:43;;;;;;;10.75;5.07;;;5.70;99.90;;;;;;5040479;28;20104;-72
2021/04/21 03:01:18;;;;;;;7.82;4.85;;;5.70;99.90;;;;;;5059392;28;20032;-72
2021/04/21 03:04:22;;;;;;;11.40;4.70;;;5.70;99.90;;;;;;5051203;28;20507;-72
2021/04/21 03:06:55;;;;;;;10.50;4.88;;;5.60;99.90;;;;;;5077791;28;20479;-72
2021/04/21 03:10:03;;;;;;;8.95;4.80;;;5.60;99.90;;;;;;5062098;28;20048;-72
2021/04/21 03:16:51;;;;;;;7.13;3.90;;;5.60;99.90;;;;;;5053145;28;20043;-72
2021/04/21 03:19:28;;;;;;;9.02;4.43;;;5.60;99.90;;;;;;5055577;28;20052;-72
2021/04/21 03:29:53;;;;;;;8.73;4.13;;;5.60;99.90;;;;;;5044046;28;20044;-72
2021/04/21 03:32:33;;;;;;;6.65;3.72;;;5.60;99.90;;;;;;5043549;28;20052;-71
2021/04/21 03:39:43;;;;;;;7.03;3.85;;;5.60;99.90;;;;;;5091936;28;20093;-72
2021/04/21 03:50:24;;;;;;;8.20;3.67;;;5.70;99.90;;;;;;5092489;28;20093;-71
2021/04/21 03:56:57;;;;;;;9.93;4.25;;;5.70;99.90;;;;;;5096254;28;20058;-73
2021/04/21 03:59:59;;;;;;;8.90;4.75;;;5.70;99.90;;;;;;5092167;28;20050;-72
2021/04/21 04:07:11;;;;;;;6.70;4.30;;;5.60;99.90;;;;;;5095941;28;20031;-72
2021/04/21 04:14:27;;;;;;;6.50;3.90;;;5.50;99.90;;;;;;5095778;28;20456;-72
2021/04/21 04:16:59;;;;;;;7.47;4.30;;;5.50;99.90;;;;;;5096022;28;20048;-72
2021/04/21 04:19:42;;;;;;;8.52;4.25;;;5.60;99.90;;;;;;5079623;28;20548;-72
2021/04/21 04:22:20;;;;;;;9.65;4.57;;;5.50;99.90;;;;;;5096230;28;20119;-71
2021/04/21 04:25:17;;;;;;;8.18;4.72;;;5.50;99.90;;;;;;5095661;28;20056;-71
2021/04/21 04:31:57;;;;;;;12.73;4.72;;;5.50;99.90;;;;;;5095374;28;20034;-71
2021/04/21 04:34:57;;;;;;;8.85;5.05;;;5.50;99.90;;;;;;5095776;28;20051;-71
2021/04/21 04:37:25;;;;;;;9.05;5.13;;;5.50;99.90;;;;;;5078759;28;20048;-71
2021/04/21 04:44:35;;;;;;;7.72;4.65;;;5.50;99.90;;;;;;5095233;28;20035;-71
2021/04/21 04:47:29;;;;;;;8.43;4.95;;;5.50;99.90;;;;;;5093949;28;20048;-71
2021/04/21 04:50:10;;;;;;;7.45;4.30;;;5.50;99.90;;;;;;5093986;28;20119;-73
2021/04/21 04:52:47;;;;;;;9.30;5.30;;;5.50;99.90;;;;;;5093807;28;20046;-72
2021/04/21 04:55:41;;;;;;;12.48;5.47;;;5.50;99.90;;;;;;5094704;28;20428;-73
2021/04/21 05:02:13;;;;;;;8.07;4.60;;;5.60;99.90;;;;;;5080448;28;20043;-72
2021/04/21 05:05:10;;;;;;;10.63;6.57;;;5.70;99.90;;;;;;5092358;28;20127;-72
2021/04/21 05:11:52;;;;;;;11.93;6.10;;;5.90;99.90;;;;;;5094627;28;20039;-71
2021/04/21 05:14:25;;;;;;;13.07;6.65;;;6.00;99.90;;;;;;5094672;28;20548;-71
2021/04/21 05:16:57;;;;;;;12.73;6.82;;;6.10;99.90;;;;;;5087025;28;20462;-71
2021/04/21 05:23:59;;;;;;;11.73;7.00;;;6.20;99.90;;;;;;5081104;28;20071;-72
2021/04/21 05:27:12;;;;;;;11.40;6.43;;;6.30;99.90;;;;;;5086784;28;20494;-72
2021/04/21 05:33:57;;;;;;;9.70;5.88;;;6.50;99.90;;;;;;5088289;28;20450;-72
2021/04/21 05:37:04;;;;;;;15.10;9.85;;;6.50;99.90;;;;;;5093726;28;20044;-72
2021/04/21 05:40:09;;;;;;;16.50;8.30;;;6.80;99.90;;;;;;5074509;28;20407;-72
2021/04/21 05:47:07;;;;;;;21.02;10.07;;;7.10;99.90;;;;;;5073756;28;20509;-72
2021/04/21 05:50:11;;;;;;;12.93;8.15;;;7.40;99.90;;;;;;5077574;28;20065;-72
2021/04/21 05:52:54;;;;;;;19.92;11.77;;;7.50;99.90;;;;;;5076075;28;20034;-72
2021/04/21 05:59:39;;;;;;;19.98;11.13;;;7.90;99.90;;;;;;5075460;28;20031;-72
2021/04/21 06:02:26;;;;;;;23.80;13.75;;;8.00;99.90;;;;;;5086728;28;20067;-72
2021/04/21 06:05:07;;;;;;;19.10;11.57;;;8.10;99.90;;;;;;5091854;28;20119;-71
2021/04/21 06:11:43;;;;;;;20.58;11.77;;;8.40;99.90;;;;;;5086928;28;20531;-70
2021/04/21 06:14:12;;;;;;;24.02;14.23;;;8.50;99.90;;;;;;5076519;28;20155;-70
2021/04/21 06:16:42;;;;;;;24.40;12.88;;;8.50;99.90;;;;;;5079854;28;20120;-71
2021/04/21 06:19:24;;;;;;;24.55;14.27;;;8.50;99.90;;;;;;5084541;28;20044;-70
2021/04/21 06:22:25;;;;;;;26.00;14.90;;;8.60;99.90;;;;;;5074013;28;20480;-71
2021/04/21 06:25:12;;;;;;;30.15;15.85;;;8.50;99.90;;;;;;5093409;28;20073;-70
2021/04/21 06:31:51;;;;;;;26.85;15.45;;;8.50;99.90;;;;;;5090736;28;20080;-72
2021/04/21 06:34:36;;;;;;;24.55;13.23;;;8.50;99.90;;;;;;5078916;28;20051;-70
2021/04/21 06:37:29;;;;;;;39.60;18.77;;;8.70;99.90;;;;;;5074060;28;20085;-70
2021/04/21 06:40:26;;;;;;;39.00;17.88;;;8.70;99.90;;;;;;5090219;28;20062;-71
2021/04/21 06:43:12;;;;;;;40.20;19.75;;;8.90;99.90;;;;;;5079463;28;20087;-72
2021/04/21 06:49:33;;;;;;;41.08;18.40;;;8.90;99.90;;;;;;5087166;28;20059;-70
2021/04/21 06:52:17;;;;;;;40.53;19.20;;;8.90;99.90;;;;;;5084479;28;20072;-72
2021/04/21 06:58:28;;;;;;;40.08;18.35;;;9.00;99.90;;;;;;5093075;28;20027;-70
2021/04/21 07:01:11;;;;;;;45.00;19.02;;;9.00;99.90;;;;;;5086153;28;20052;-71
2021/04/21 07:06:59;;;;;;;39.80;17.77;;;9.00;99.90;;;;;;5083839;28;20475;-72
2021/04/21 07:09:58;;;;;;;42.13;17.75;;;9.00;99.90;;;;;;5088887;28;20072;-70
2021/04/21 07:12:29;;;;;;;35.00;16.63;;;9.00;99.90;;;;;;5084300;28;20076;-71
2021/04/21 07:15:13;;;;;;;38.63;18.13;;;9.10;99.90;;;;;;5087427;28;20174;-69
2021/04/21 07:17:53;;;;;;;39.50;17.30;;;8.90;99.90;;;;;;5085602;28;20063;-70
2021/04/21 07:24:26;;;;;;;55.22;21.13;;;8.90;99.90;;;;;;5088535;28;20533;-73
2021/04/21 07:30:54;;;;;;;45.42;19.35;;;8.70;99.90;;;;;;5096464;28;20398;-73
2021/04/21 07:33:42;;;;;;;39.05;17.50;;;8.70;99.90;;;;;;5094149;28;20044;-73
2021/04/21 07:36:48;;;;;;;34.45;15.93;;;8.60;99.90;;;;;;5089472;28;20528;-72
2021/04/21 07:39:43;;;;;;;43.83;16.92;;;8.60;99.90;;;;;;5096172;28;20056;-74
2021/04/21 07:42:33;;;;;;;35.25;15.95;;;8.60;99.90;;;;;;5097416;28;20093;-74
2021/04/21 07:45:38;;;;;;;36.83;15.27;;;8.60;99.90;;;;;;5080678;28;20071;-72
2021/04/21 07:51:52;;;;;;;32.13;14.50;;;8.80;99.90;;;;;;5096253;28;20046;-76
2021/04/21 07:54:31;;;;;;;33.40;14.50;;;8.80;99.90;;;;;;5079401;28;20097;-76
2021/04/21 08:00:54;;;;;;;26.55;13.13;;;8.90;99.90;;;;;;5096011;28;20055;-73
2021/04/21 08:04:21;;;;;;;23.45;10.45;;;9.00;99.90;;;;;;5074856;28;20070;-74
2021/04/21 08:07:27;;;;;;;17.75;9.10;;;9.10;99.90;;;;;;5090332;28;20040;-74
2021/04/21 08:10:18;;;;;;;16.50;9.07;;;9.20;99.90;;;;;;5096577;28;20056;-73
2021/04/21 08:16:57;;;;;;;15.10;8.10;;;9.20;99.90;;;;;;5092512;28;20411;-72
2021/04/21 08:19:24;;;;;;;15.68;7.97;;;9.20;99.90;;;;;;5092130;28;20067;-75
2021/04/21 08:21:58;;;;;;;18.52;8.27;;;9.10;99.90;;;;;;5061045;28;20044;-71
2021/04/21 08:24:52;;;;;;;16.73;8.73;;;9.10;99.90;;;;;;5077702;28;20183;-70
2021/04/21 08:34:59;;;;;;;11.15;5.65;;;8.90;99.90;;;;;;5089052;28;20048;-74
2021/04/21 08:37:26;;;;;;;9.27;4.65;;;9.00;99.90;;;;;;5077989;28;20043;-75
2021/04/21 08:44:40;;;;;;;10.48;4.95;;;9.20;99.90;;;;;;5091627;28;20062;-73
2021/04/21 08:47:32;;;;;;;12.75;5.70;;;9.40;99.90;;;;;;5093623;28;20036;-69
2021/04/21 08:50:02;;;;;;;18.65;5.80;;;9.40;99.90;;;;;;5091131;28;20411;-73
2021/04/21 08:52:48;;;;;;;11.23;4.00;;;9.40;99.90;;;;;;5080353;28;20478;-72
2021/04/21 08:59:19;;;;;;;4.13;1.52;;;9.40;99.90;;;;;;5092115;28;20386;-73
2021/04/21 09:01:52;;;;;;;9.85;1.95;;;9.40;99.90;;;;;;5095923;28;20036;-72
2021/04/21 09:04:23;;;;;;;4.90;2.55;;;9.40;99.90;;;;;;5094843;28;20051;-72
2021/04/21 09:06:56;;;;;;;8.55;1.52;;;9.50;99.90;;;;;;5095540;28;20076;-72
2021/04/21 09:09:27;;;;;;;5.35;1.73;;;9.70;99.90;;;;;;5092955;28;20044;-71
2021/04/21 09:11:56;;;;;;;7.22;1.65;;;9.80;99.90;;;;;;5094467;28;20040;-70
2021/04/21 09:14:35;;;;;;;1.83;0.90;;;9.80;99.90;;;;;;5094686;28;20123;-71
2021/04/21 09:17:47;;;;;;;5.65;1.38;;;9.90;99.90;;;;;;5057906;28;20407;-72
2021/04/21 09:20:22;;;;;;;3.33;1.00;;;9.90;99.90;;;;;;5088504;28;20048;-70
2021/04/21 09:26:58;;;;;;;5.78;1.35;;;10.20;99.90;;;;;;5090556;28;20580;-71
2021/04/21 09:37:03;;;;;;;5.85;1.38;;;10.50;99.90;;;;;;5076984;28;20068;-74
2021/04/21 09:39:37;;;;;;;6.30;1.10;;;10.50;99.90;;;;;;5073891;28;20076;-74
2021/04/21 09:42:12;;;;;;;5.40;1.17;;;10.60;99.90;;;;;;5093707;28;20078;-74
2021/04/21 09:44:47;;;;;;;5.30;1.13;;;10.50;99.90;;;;;;5071425;28;20119;-74
2021/04/21 09:47:41;;;;;;;6.43;1.15;;;10.50;99.90;;;;;;5088794;28;20073;-74
2021/04/21 09:50:53;;;;;;;7.43;1.30;;;10.50;99.90;;;;;;5090219;28;20040;-74
2021/04/21 09:57:12;;;;;;;9.82;1.00;;;10.40;99.90;;;;;;5085622;28;20110;-70
2021/04/21 09:59:42;;;;;;;4.47;0.90;;;10.30;99.90;;;;;;5074238;28;20167;-70
2021/04/21 10:02:40;;;;;;;8.88;1.52;;;10.30;99.90;;;;;;5091866;28;20097;-72
2021/04/21 10:05:37;;;;;;;7.05;1.05;;;10.40;99.90;;;;;;5093670;28;20505;-74
2021/04/21 10:12:39;;;;;;;8.02;1.58;;;10.60;99.90;;;;;;5076193;28;20070;-71
2021/04/21 10:15:29;;;;;;;9.45;1.50;;;10.60;99.90;;;;;;5080655;28;20145;-71
2021/04/21 10:18:02;;;;;;;8.48;1.60;;;10.70;99.90;;;;;;5093425;28;20043;-72
2021/04/21 10:20:31;;;;;;;7.53;1.60;;;10.60;99.90;;;;;;5089226;28;20048;-73
2021/04/21 10:26:44;;;;;;;9.82;1.85;;;10.40;99.90;;;;;;5082816;28;20039;-73
2021/04/21 10:29:35;;;;;;;18.60;2.75;;;10.30;99.90;;;;;;5093842;28;20047;-70
2021/04/21 10:32:30;;;;;;;17.77;2.60;;;10.40;99.90;;;;;;5093497;28;20048;-70
2021/04/21 10:35:14;;;;;;;13.43;1.70;;;10.20;99.90;;;;;;5074802;28;20075;-71
2021/04/21 10:37:52;;;;;;;11.43;2.00;;;10.20;99.90;;;;;;5093331;28;20443;-72
2021/04/21 10:45:02;;;;;;;11.70;2.17;;;10.30;99.90;;;;;;5089600;28;20090;-71
2021/04/21 10:52:26;;;;;;;10.35;2.05;;;10.30;99.90;;;;;;5078493;28;20097;-79
2021/04/21 10:55:45;;;;;;;14.68;2.60;;;10.30;99.90;;;;;;5086188;28;20075;-74
2021/04/21 10:58:16;;;;;;;6.38;1.80;;;10.40;99.90;;;;;;5097346;28;20040;-76
2021/04/21 11:00:50;;;;;;;11.95;2.08;;;10.40;99.90;;;;;;5094923;28;20124;-75
2021/04/21 11:03:28;;;;;;;13.68;2.17;;;10.40;99.90;;;;;;5098427;28;20100;-80
2021/04/21 11:13:34;;;;;;;14.57;1.92;;;10.50;99.90;;;;;;5077925;28;20529;-78
2021/04/21 11:16:26;;;;;;;7.75;1.92;;;10.30;99.90;;;;;;5090751;28;20040;-78
2021/04/21 11:23:27;;;;;;;;;;;;;;;;;;;;;
2021/04/21 11:33:50;;;;;;;9.75;2.10;;;10.60;99.90;;;;;;5073086;28;20052;-73
2021/04/21 11:43:49;;;;;;;9.60;1.80;;;10.60;99.90;;;;;;5076196;28;20056;-75
2021/04/21 11:47:05;;;;;;;8.38;1.90;;;10.80;99.90;;;;;;5096612;28;20044;-76
2021/04/21 11:53:22;;;;;;;9.93;1.75;;;10.80;99.90;;;;;;5086158;28;20216;-73
2021/04/21 11:56:25;;;;;;;9.57;2.28;;;10.80;99.90;;;;;;5096115;28;20040;-74
2021/04/21 12:03:27;;;;;;;10.98;2.17;;;10.70;99.90;;;;;;5081088;28;20036;-74
2021/04/21 12:06:01;;;;;;;15.35;2.50;;;10.70;99.90;;;;;;5088340;28;20047;-79
2021/04/21 12:08:36;;;;;;;11.43;2.00;;;10.60;99.90;;;;;;5086713;28;20044;-82
2021/04/21 12:18:49;;;;;;;7.75;1.83;;;10.70;99.90;;;;;;5076056;28;20082;-81
2021/04/21 12:21:45;;;;;;;10.05;2.05;;;10.70;99.90;;;;;;5095613;28;20080;-79
2021/04/21 12:28:25;;;;;;;8.50;2.03;;;10.80;99.90;;;;;;5085556;28;20567;-77
2021/04/21 12:31:00;;;;;;;13.73;2.88;;;10.90;99.90;;;;;;5091583;28;20040;-80
2021/04/21 12:33:27;;;;;;;14.65;3.42;;;11.00;99.90;;;;;;5077908;28;20447;-79
2021/04/21 12:36:15;;;;;;;13.82;2.28;;;11.00;99.90;;;;;;5071562;28;20120;-73
2021/04/21 12:38:41;;;;;;;7.97;2.30;;;10.90;99.90;;;;;;5074664;28;20053;-74
2021/04/21 12:41:28;;;;;;;10.20;2.03;;;10.80;99.90;;;;;;5090409;28;20403;-75
2021/04/21 12:47:40;;;;;;;10.40;1.98;;;10.60;99.90;;;;;;5094898;28;20082;-75
2021/04/21 12:50:58;;;;;;;9.20;2.08;;;10.70;99.90;;;;;;5087645;28;20155;-76
2021/04/21 12:53:33;;;;;;;6.75;1.92;;;10.80;99.90;;;;;;5084458;28;20048;-76
2021/04/21 12:56:13;;;;;;;13.10;1.83;;;10.80;99.90;;;;;;5095106;28;20075;-75
2021/04/21 12:59:11;;;;;;;11.05;2.10;;;10.90;99.90;;;;;;5093447;28;20085;-73
2021/04/21 13:05:59;;;;;;;7.78;2.20;;;10.70;99.90;;;;;;5094894;28;20039;-75
2021/04/21 13:08:30;;;;;;;8.75;1.77;;;10.70;99.90;;;;;;5095410;28;20040;-75
2021/04/21 13:11:11;;;;;;;7.15;1.73;;;10.80;99.90;;;;;;5087475;28;20036;-74
2021/04/21 13:13:47;;;;;;;8.40;2.05;;;10.90;99.90;;;;;;5088796;28;20051;-73
2021/04/21 13:21:00;;;;;;;5.85;1.35;;;10.70;99.90;;;;;;5094875;28;20426;-72
2021/04/21 13:23:33;;;;;;;11.02;1.63;;;10.60;99.90;;;;;;5094801;28;20087;-72
2021/04/21 13:26:13;;;;;;;7.38;1.35;;;10.60;99.90;;;;;;5078891;28;20408;-76
2021/04/21 13:28:53;;;;;;;5.43;1.58;;;10.60;99.90;;;;;;5094289;28;20479;-73
2021/04/21 13:35:33;;;;;;;12.68;2.15;;;10.60;99.90;;;;;;5086518;28;20055;-73
2021/04/21 13:37:59;;;;;;;8.30;1.92;;;10.60;99.90;;;;;;5060105;28;20135;-72
2021/04/21 13:43:38;;;;;;;12.63;1.95;;;10.80;99.90;;;;;;5091550;28;20040;-72
2021/04/21 13:46:38;;;;;;;10.45;1.50;;;10.70;99.90;;;;;;5092182;28;20056;-73
2021/04/21 13:49:50;;;;;;;7.10;2.58;;;10.60;99.90;;;;;;5079344;28;20044;-72
2021/04/21 13:52:28;;;;;;;12.00;1.58;;;10.70;99.90;;;;;;5093538;28;20119;-72
2021/04/21 13:54:58;;;;;;;5.35;1.15;;;10.70;99.90;;;;;;5075817;28;20456;-72
2021/04/21 14:01:06;;;;;;;9.60;1.63;;;10.60;99.90;;;;;;5092836;28;20093;-72
2021/04/21 14:03:54;;;;;;;4.53;1.40;;;10.60;99.90;;;;;;5092547;28;20122;-73
2021/04/21 14:06:40;;;;;;;5.45;1.42;;;10.60;99.90;;;;;;5074790;28;20127;-72
2021/04/21 14:09:09;;;;;;;6.45;1.50;;;10.50;99.90;;;;;;5086452;28;20059;-73
2021/04/21 14:12:11;;;;;;;8.82;1.50;;;10.30;99.90;;;;;;5077182;28;20040;-73
2021/04/21 14:14:41;;;;;;;6.93;1.33;;;10.20;99.90;;;;;;5083023;28;20066;-73
2021/04/21 14:21:41;;;;;;;5.22;1.40;;;10.40;99.90;;;;;;5086128;28;20380;-72
2021/04/21 14:24:44;;;;;;;4.78;1.08;;;10.40;99.90;;;;;;5094765;28;20493;-74
2021/04/21 14:27:18;;;;;;;7.53;1.20;;;10.50;99.90;;;;;;5074996;28;20040;-73
2021/04/21 14:29:44;;;;;;;7.25;1.50;;;10.60;99.90;;;;;;5089661;28;20127;-75
2021/04/21 14:32:30;;;;;;;11.75;1.45;;;10.70;99.90;;;;;;5092976;28;20055;-72
2021/04/21 14:39:42;;;;;;;;;;;;;;;;;;;;;
2021/04/21 14:46:48;;;;;;;9.50;1.00;;;10.70;99.90;;;;;;5056271;28;20063;-69
2021/04/21 14:49:36;;;;;;;5.53;1.17;;;10.70;99.90;;;;;;5067417;28;20414;-71
2021/04/21 14:52:07;;;;;;;4.63;1.23;;;10.70;99.90;;;;;;5069929;28;20037;-73
2021/04/21 15:02:20;;;;;;;7.72;2.03;;;10.20;99.90;;;;;;5056924;28;20385;-70
2021/04/21 15:05:09;;;;;;;10.23;2.30;;;10.20;99.90;;;;;;5053166;28;20507;-69
2021/04/21 15:07:42;;;;;;;7.22;1.52;;;10.10;99.90;;;;;;5072203;28;20048;-71
2021/04/21 15:10:29;;;;;;;10.90;1.65;;;9.90;99.90;;;;;;5070638;28;20059;-70
2021/04/21 15:13:37;;;;;;;8.05;1.73;;;9.80;99.90;;;;;;5071267;28;20119;-70
2021/04/21 15:20:06;;;;;;;9.65;1.67;;;9.70;99.90;;;;;;5057160;28;20047;-69
2021/04/21 15:22:45;;;;;;;4.90;0.88;;;9.90;99.90;;;;;;5054495;28;20122;-70
2021/04/21 15:29:33;;;;;;;5.18;1.08;;;9.80;99.90;;;;;;5068760;28;20071;-69
2021/04/21 15:32:19;;;;;;;6.43;1.55;;;9.90;99.90;;;;;;5052720;28;20052;-69
2021/04/21 15:35:17;;;;;;;5.85;1.30;;;10.00;99.90;;;;;;5072442;28;20550;-69
2021/04/21 15:37:51;;;;;;;6.75;1.65;;;10.00;99.90;;;;;;5054681;28;20499;-69
2021/04/21 15:40:21;;;;;;;9.93;1.77;;;10.10;99.90;;;;;;5071047;28;20113;-69
2021/04/21 15:55:20;;;;;;;8.52;1.70;;;9.80;99.90;;;;;;5072574;28;20094;-70
2021/04/21 15:57:50;;;;;;;10.13;2.00;;;9.60;99.90;;;;;;5072722;28;20044;-69
2021/04/21 16:00:24;;;;;;;15.75;2.88;;;9.50;99.90;;;;;;5075937;28;20052;-70
2021/04/21 16:02:59;;;;;;;8.48;2.22;;;9.20;99.90;;;;;;5075664;28;20478;-68
2021/04/21 16:05:44;;;;;;;14.98;2.60;;;9.20;99.90;;;;;;5067234;28;20053;-69
2021/04/21 16:12:07;;;;;;;12.63;2.53;;;9.00;99.90;;;;;;5074148;28;20036;-68
2021/04/21 16:14:53;;;;;;;13.43;2.60;;;8.90;99.90;;;;;;5075352;28;20036;-69
2021/04/21 16:17:25;;;;;;;9.57;1.73;;;8.90;99.90;;;;;;5043401;28;20043;-69
2021/04/21 16:19:53;;;;;;;12.48;2.47;;;9.00;99.90;;;;;;5070355;28;20044;-70
2021/04/21 16:22:36;;;;;;;11.05;2.20;;;9.00;99.90;;;;;;5075544;28;20479;-69
2021/04/21 16:25:38;;;;;;;14.90;2.30;;;9.00;99.90;;;;;;5048096;28;20045;-70
2021/04/21 16:28:26;;;;;;;7.60;1.83;;;9.00;99.90;;;;;;5054921;28;20053;-70
2021/04/21 16:31:09;;;;;;;13.48;2.42;;;9.10;99.90;;;;;;5056849;28;20040;-65
2021/04/21 16:37:29;;;;;;;14.68;2.85;;;9.00;99.90;;;;;;5056579;28;20522;-68
2021/04/21 16:40:04;;;;;;;12.55;2.47;;;8.90;99.90;;;;;;5055242;28;20036;-66
2021/04/21 16:42:39;;;;;;;10.23;1.80;;;9.00;99.90;;;;;;5075742;28;20129;-67
2021/04/21 16:45:39;;;;;;;11.30;2.28;;;8.80;99.90;;;;;;5073388;28;20402;-68
2021/04/21 16:48:16;;;;;;;12.55;1.85;;;8.80;99.90;;;;;;5071677;28;20048;-67
2021/04/21 16:54:38;;;;;;;19.85;2.65;;;8.70;99.90;;;;;;5087150;28;20035;-67
2021/04/21 16:57:24;;;;;;;14.50;1.98;;;8.60;99.90;;;;;;5093511;28;20553;-67
2021/04/21 16:59:55;;;;;;;10.68;2.22;;;8.60;99.90;;;;;;5095288;28;20036;-67
2021/04/21 17:02:29;;;;;;;9.05;1.58;;;8.70;99.90;;;;;;5061225;28;20438;-67
2021/04/21 17:05:25;;;;;;;16.98;2.20;;;8.50;99.90;;;;;;5090040;28;20118;-68
2021/04/21 17:11:45;;;;;;;11.23;1.52;;;8.50;99.90;;;;;;5086382;28;20399;-67
2021/04/21 17:14:48;;;;;;;13.18;2.47;;;8.40;99.90;;;;;;5088454;28;20051;-66
2021/04/21 17:17:52;;;;;;;11.23;2.03;;;8.30;99.90;;;;;;5090365;28;20079;-66
2021/04/21 17:20:37;;;;;;;14.55;2.65;;;8.30;99.90;;;;;;5068802;28;20494;-66
2021/04/21 17:23:09;;;;;;;16.95;2.75;;;8.20;99.90;;;;;;5086326;28;20062;-67
2021/04/21 17:29:56;;;;;;;11.10;2.42;;;8.10;99.90;;;;;;5082001;28;20078;-67
2021/04/21 17:32:51;;;;;;;14.30;2.65;;;8.20;99.90;;;;;;5087365;28;20511;-66
2021/04/21 17:35:23;;;;;;;10.80;2.22;;;8.10;99.90;;;;;;5093922;28;20487;-66
2021/04/21 17:37:53;;;;;;;12.57;2.65;;;8.10;99.90;;;;;;5092635;28;20036;-67
2021/04/21 17:40:25;;;;;;;8.73;1.80;;;8.10;99.90;;;;;;5092121;28;20534;-66
2021/04/21 17:43:23;;;;;;;13.55;2.00;;;8.00;99.90;;;;;;5093214;28;20128;-66
2021/04/21 17:46:05;;;;;;;11.05;2.17;;;8.00;99.90;;;;;;5072633;28;20068;-66
2021/04/21 17:52:30;;;;;;;11.48;2.38;;;7.80;99.90;;;;;;5088330;28;20030;-67
2021/04/21 17:55:02;;;;;;;22.33;3.28;;;7.90;99.90;;;;;;5089533;28;20399;-67
2021/04/21 18:05:03;;;;;;;15.80;2.40;;;7.70;99.90;;;;;;5093775;28;20437;-67
2021/04/21 18:07:30;;;;;;;9.27;2.22;;;7.70;99.90;;;;;;5090891;28;20131;-68
2021/04/21 18:10:18;;;;;;;15.15;2.92;;;7.60;99.90;;;;;;5059231;28;20040;-67
2021/04/21 18:12:51;;;;;;;10.15;2.28;;;7.50;99.90;;;;;;5088805;28;20048;-66
2021/04/21 18:15:29;;;;;;;11.00;2.22;;;7.50;99.90;;;;;;5093654;28;20068;-67
2021/04/21 18:18:03;;;;;;;12.77;2.83;;;7.50;99.90;;;;;;5093155;28;20047;-66
2021/04/21 18:20:49;;;;;;;12.25;2.97;;;7.50;99.90;;;;;;5080460;28;20040;-65
2021/04/21 18:27:33;;;;;;;22.52;3.28;;;7.40;99.90;;;;;;5093057;28;20076;-68
2021/04/21 18:30:08;;;;;;;13.23;2.50;;;7.40;99.90;;;;;;5092677;28;20055;-69
2021/04/21 18:32:36;;;;;;;12.15;2.53;;;7.30;99.90;;;;;;5075098;28;20115;-68
2021/04/21 18:35:15;;;;;;;13.60;1.83;;;7.30;99.90;;;;;;5093668;28;20058;-69
2021/04/21 18:37:56;;;;;;;14.40;2.72;;;7.30;99.90;;;;;;5089149;28;20532;-70
2021/04/21 18:40:40;;;;;;;21.02;3.17;;;7.30;99.90;;;;;;5094293;28;20048;-68
2021/04/21 18:47:37;;;;;;;13.90;2.92;;;7.10;99.90;;;;;;5052832;28;20059;-68
2021/04/21 18:50:08;;;;;;;10.63;2.63;;;7.10;99.90;;;;;;5049845;28;20413;-68
2021/04/21 18:52:38;;;;;;;11.57;2.65;;;7.10;99.90;;;;;;5052983;28;20052;-68
2021/04/21 18:55:08;;;;;;;10.30;3.35;;;7.10;99.90;;;;;;5061443;28;20427;-67
2021/04/21 18:57:36;;;;;;;10.55;3.33;;;7.20;99.90;;;;;;5047196;28;20147;-68
2021/04/21 19:00:06;;;;;;;21.27;4.28;;;7.20;99.90;;;;;;5053186;28;20459;-68
2021/04/21 19:02:38;;;;;;;11.88;2.72;;;7.20;99.90;;;;;;5059749;28;20061;-68
2021/04/21 19:05:11;;;;;;;18.10;4.43;;;7.20;99.90;;;;;;5051791;28;20611;-68
2021/04/21 19:07:40;;;;;;;21.90;3.20;;;7.20;99.90;;;;;;5036333;28;20041;-66
2021/04/21 19:10:09;;;;;;;18.90;3.28;;;7.10;99.90;;;;;;5057926;28;20093;-67
2021/04/21 19:13:05;;;;;;;16.38;3.13;;;7.10;99.90;;;;;;5060910;28;20052;-67
2021/04/21 19:19:23;;;;;;;16.77;3.22;;;7.10;99.90;;;;;;5054904;28;20035;-68
2021/04/21 19:22:22;;;;;;;10.23;3.50;;;7.10;99.90;;;;;;5056850;28;20510;-68
2021/04/21 19:25:11;;;;;;;21.88;3.45;;;7.00;99.90;;;;;;5038394;28;20051;-68
2021/04/21 19:27:38;;;;;;;14.80;3.03;;;7.00;99.90;;;;;;5057146;28;20440;-68
2021/04/21 19:30:18;;;;;;;10.25;2.53;;;7.10;99.90;;;;;;5055899;28;20049;-67
2021/04/21 19:33:14;;;;;;;15.98;3.42;;;7.00;99.90;;;;;;5051886;28;20090;-69
2021/04/21 19:36:07;;;;;;;10.60;2.55;;;7.00;99.90;;;;;;5052914;28;20049;-68
2021/04/21 19:38:35;;;;;;;12.15;2.47;;;7.00;99.90;;;;;;5047428;28;20373;-67
2021/04/21 19:41:55;;;;;;;14.95;2.78;;;7.10;99.90;;;;;;5069890;28;20139;-67
2021/04/21 19:44:48;;;;;;;9.55;2.13;;;7.00;99.90;;;;;;5095398;28;20051;-68
2021/04/21 19:47:30;;;;;;;23.42;5.72;;;7.00;99.90;;;;;;5096405;28;20044;-68
2021/04/21 19:50:11;;;;;;;25.20;5.30;;;7.00;99.90;;;;;;5080973;28;20490;-67
2021/04/21 19:52:46;;;;;;;15.32;4.20;;;6.90;99.90;;;;;;5091786;28;20039;-67
2021/04/21 19:55:36;;;;;;;11.48;2.97;;;6.90;99.90;;;;;;5081564;28;20048;-68
2021/04/21 20:02:03;;;;;;;10.63;3.92;;;6.90;99.90;;;;;;5094618;28;20058;-67
2021/04/21 20:04:35;;;;;;;14.40;3.50;;;7.00;99.90;;;;;;5081207;28;20049;-68
2021/04/21 20:10:48;;;;;;;13.73;3.13;;;7.00;99.90;;;;;;5081911;28;20054;-67
2021/04/21 20:17:08;;;;;;;16.58;3.83;;;7.00;99.90;;;;;;5095230;28;20065;-68
2021/04/21 20:19:47;;;;;;;13.60;2.95;;;7.00;99.90;;;;;;5095346;28;20497;-68
2021/04/21 20:22:53;;;;;;;9.57;3.25;;;6.90;99.90;;;;;;5095736;28;20039;-69
2021/04/21 20:25:20;;;;;;;9.45;2.67;;;6.90;99.90;;;;;;5090556;28;20479;-68
2021/04/21 20:27:49;;;;;;;18.38;4.00;;;6.80;99.90;;;;;;5094575;28;20101;-67
2021/04/21 20:30:21;;;;;;;13.80;3.30;;;6.80;99.90;;;;;;5089119;28;20117;-67
2021/04/21 20:32:49;;;;;;;17.50;4.15;;;6.80;99.90;;;;;;5075545;28;20036;-67
2021/04/21 20:42:56;;;;;;;11.57;2.45;;;6.90;99.90;;;;;;5081936;28;20494;-66
2021/04/21 20:46:12;;;;;;;22.02;3.90;;;6.90;99.90;;;;;;5087666;28;20052;-67
2021/04/21 20:49:28;;;;;;;16.70;4.13;;;6.90;99.90;;;;;;5090690;28;20044;-67
2021/04/21 20:52:55;;;;;;;11.10;3.45;;;6.80;99.90;;;;;;5083021;28;20098;-68
2021/04/21 20:55:47;;;;;;;10.15;2.92;;;6.80;99.90;;;;;;5095010;28;20506;-68
2021/04/21 21:05:27;;;;;;;14.20;3.67;;;6.80;99.90;;;;;;5078338;28;20525;-67
2021/04/21 21:08:00;;;;;;;13.02;2.60;;;6.70;99.90;;;;;;5094443;28;20044;-67